sensor_id;sensor_type;location;lat;lon;timestamp;pressure;altitude;pressure_sealevel;temperature;humidity
53262;BME280;39658;51.090;-1.786;2023-02-18T00:00:55;101813.59;;;11.25;100.00
53262;BME280;39658;51.090;-1.786;2023-02-18T00:03:23;101814.22;;;11.18;100.00
53262;BME280;39658;51.090;-1.786;2023-02-18T00:05:50;101822.09;;;11.19;100.00
53262;BME280;39658;51.090;-1.786;2023-02-18T00:08:17;101818.00;;;11.15;100.00
53262;BME280;39658;51.090;-1.786;2023-02-18T00:10:44;101822.09;;;11.19;100.00
53262;BME280;39658;51.090;-1.786;2023-02-18T00:13:11;101824.31;;;11.14;100.00
53262;BME280;39658;51.090;-1.786;2023-02-18T00:15:38;101825.28;;;11.13;100.00
53262;BME280;39658;51.090;-1.786;2023-02-18T00:18:06;101820.34;;;11.09;100.00
53262;BME280;39658;51.090;-1.786;2023-02-18T00:20:33;101823.97;;;11.08;100.00
53262;BME280;39658;51.090;-1.786;2023-02-18T00:23:01;101829.56;;;11.05;100.00
53262;BME280;39658;51.090;-1.786;2023-02-18T00:25:28;101838.53;;;11.04;100.00
53262;BME280;39658;51.090;-1.786;2023-02-18T00:27:54;101835.44;;;10.98;100.00
53262;BME280;39658;51.090;-1.786;2023-02-18T00:30:21;101842.31;;;11.01;100.00
53262;BME280;39658;51.090;-1.786;2023-02-18T00:32:48;101821.00;;;11.01;100.00
53262;BME280;39658;51.090;-1.786;2023-02-18T00:35:16;101822.28;;;11.07;100.00
53262;BME280;39658;51.090;-1.786;2023-02-18T00:37:43;101821.72;;;11.03;100.00
53262;BME280;39658;51.090;-1.786;2023-02-18T00:40:10;101812.16;;;11.01;100.00
53262;BME280;39658;51.090;-1.786;2023-02-18T00:42:37;101813.81;;;10.92;100.00
53262;BME280;39658;51.090;-1.786;2023-02-18T00:45:05;101818.66;;;10.87;100.00
53262;BME280;39658;51.090;-1.786;2023-02-18T00:47:31;101813.22;;;10.88;100.00
53262;BME280;39658;51.090;-1.786;2023-02-18T00:49:58;101811.91;;;10.83;100.00
53262;BME280;39658;51.090;-1.786;2023-02-18T00:52:26;101805.75;;;10.82;100.00
53262;BME280;39658;51.090;-1.786;2023-02-18T00:54:53;101807.56;;;10.82;100.00
53262;BME280;39658;51.090;-1.786;2023-02-18T00:57:20;101803.94;;;10.83;100.00
53262;BME280;39658;51.090;-1.786;2023-02-18T00:59:46;101810.09;;;10.83;100.00
53262;BME280;39658;51.090;-1.786;2023-02-18T01:02:13;101807.94;;;10.77;100.00
53262;BME280;39658;51.090;-1.786;2023-02-18T01:04:40;101812.06;;;10.81;100.00
53262;BME280;39658;51.090;-1.786;2023-02-18T01:07:07;101818.44;;;10.79;100.00
53262;BME280;39658;51.090;-1.786;2023-02-18T01:09:36;101802.72;;;10.76;100.00
53262;BME280;39658;51.090;-1.786;2023-02-18T01:12:03;101797.09;;;10.69;100.00
53262;BME280;39658;51.090;-1.786;2023-02-18T01:14:30;101790.06;;;10.68;100.00
53262;BME280;39658;51.090;-1.786;2023-02-18T01:16:57;101793.44;;;10.70;100.00
53262;BME280;39658;51.090;-1.786;2023-02-18T01:19:23;101796.56;;;10.75;100.00
53262;BME280;39658;51.090;-1.786;2023-02-18T01:21:50;101798.06;;;10.68;100.00
53262;BME280;39658;51.090;-1.786;2023-02-18T01:24:17;101798.31;;;10.65;100.00
53262;BME280;39658;51.090;-1.786;2023-02-18T01:26:45;101783.78;;;10.69;100.00
53262;BME280;39658;51.090;-1.786;2023-02-18T01:29:12;101784.63;;;10.70;100.00
53262;BME280;39658;51.090;-1.786;2023-02-18T01:31:38;101799.50;;;10.72;100.00
53262;BME280;39658;51.090;-1.786;2023-02-18T01:34:05;101783.50;;;10.72;100.00
53262;BME280;39658;51.090;-1.786;2023-02-18T01:36:32;101781.56;;;10.74;100.00
53262;BME280;39658;51.090;-1.786;2023-02-18T01:38:59;101789.41;;;10.76;100.00
53262;BME280;39658;51.090;-1.786;2023-02-18T01:41:26;101784.81;;;10.78;100.00
53262;BME280;39658;51.090;-1.786;2023-02-18T01:44:16;101788.19;;;10.80;100.00
53262;BME280;39658;51.090;-1.786;2023-02-18T01:46:43;101779.25;;;10.81;100.00
53262;BME280;39658;51.090;-1.786;2023-02-18T01:49:13;101777.66;;;10.78;100.00
53262;BME280;39658;51.090;-1.786;2023-02-18T01:51:46;101786.38;;;10.80;100.00
53262;BME280;39658;51.090;-1.786;2023-02-18T01:54:18;101780.31;;;10.78;100.00
53262;BME280;39658;51.090;-1.786;2023-02-18T01:56:50;101786.69;;;10.66;100.00
53262;BME280;39658;51.090;-1.786;2023-02-18T01:59:23;101790.47;;;10.63;100.00
53262;BME280;39658;51.090;-1.786;2023-02-18T02:01:51;101790.00;;;10.58;100.00
53262;BME280;39658;51.090;-1.786;2023-02-18T02:04:19;101786.50;;;10.58;100.00
53262;BME280;39658;51.090;-1.786;2023-02-18T02:06:46;101779.34;;;10.58;100.00
53262;BME280;39658;51.090;-1.786;2023-02-18T02:09:15;101780.19;;;10.59;100.00
53262;BME280;39658;51.090;-1.786;2023-02-18T02:15:15;101785.25;;;10.62;100.00
53262;BME280;39658;51.090;-1.786;2023-02-18T02:18:01;101786.25;;;10.61;100.00
53262;BME280;39658;51.090;-1.786;2023-02-18T02:20:58;101784.81;;;10.57;100.00
53262;BME280;39658;51.090;-1.786;2023-02-18T02:23:44;101782.22;;;10.46;100.00
53262;BME280;39658;51.090;-1.786;2023-02-18T02:32:49;101768.22;;;10.32;100.00
53262;BME280;39658;51.090;-1.786;2023-02-18T02:35:25;101764.44;;;10.35;100.00
53262;BME280;39658;51.090;-1.786;2023-02-18T02:37:59;101760.81;;;10.36;100.00
53262;BME280;39658;51.090;-1.786;2023-02-18T02:40:35;101756.84;;;10.30;100.00
53262;BME280;39658;51.090;-1.786;2023-02-18T02:43:11;101749.34;;;10.35;100.00
53262;BME280;39658;51.090;-1.786;2023-02-18T02:45:48;101758.81;;;10.28;100.00
53262;BME280;39658;51.090;-1.786;2023-02-18T02:48:24;101759.91;;;10.26;100.00
53262;BME280;39658;51.090;-1.786;2023-02-18T02:51:04;101752.91;;;10.25;100.00
53262;BME280;39658;51.090;-1.786;2023-02-18T02:53:34;101764.63;;;10.22;100.00
53262;BME280;39658;51.090;-1.786;2023-02-18T02:56:02;101754.97;;;10.21;100.00
53262;BME280;39658;51.090;-1.786;2023-02-18T02:58:28;101732.44;;;10.25;100.00
53262;BME280;39658;51.090;-1.786;2023-02-18T03:01:11;101737.19;;;10.22;100.00
53262;BME280;39658;51.090;-1.786;2023-02-18T03:06:43;101722.44;;;10.18;100.00
53262;BME280;39658;51.090;-1.786;2023-02-18T03:09:16;101721.25;;;10.11;100.00
53262;BME280;39658;51.090;-1.786;2023-02-18T03:11:53;101713.41;;;10.09;100.00
53262;BME280;39658;51.090;-1.786;2023-02-18T03:14:29;101716.78;;;10.11;100.00
53262;BME280;39658;51.090;-1.786;2023-02-18T03:17:00;101720.06;;;10.03;100.00
53262;BME280;39658;51.090;-1.786;2023-02-18T03:19:32;101708.09;;;9.98;100.00
53262;BME280;39658;51.090;-1.786;2023-02-18T03:22:05;101708.22;;;9.96;100.00
53262;BME280;39658;51.090;-1.786;2023-02-18T03:24:37;101704.34;;;10.00;100.00
53262;BME280;39658;51.090;-1.786;2023-02-18T03:27:09;101699.63;;;10.04;100.00
53262;BME280;39658;51.090;-1.786;2023-02-18T03:29:38;101701.91;;;10.09;100.00
53262;BME280;39658;51.090;-1.786;2023-02-18T03:32:09;101696.47;;;10.10;100.00
53262;BME280;39658;51.090;-1.786;2023-02-18T03:34:41;101698.41;;;10.08;100.00
53262;BME280;39658;51.090;-1.786;2023-02-18T03:37:11;101702.50;;;10.12;100.00
53262;BME280;39658;51.090;-1.786;2023-02-18T03:39:43;101688.81;;;10.17;100.00
53262;BME280;39658;51.090;-1.786;2023-02-18T03:42:11;101681.81;;;10.16;100.00
53262;BME280;39658;51.090;-1.786;2023-02-18T03:44:38;101689.22;;;10.12;100.00
53262;BME280;39658;51.090;-1.786;2023-02-18T03:47:05;101676.00;;;10.22;100.00
53262;BME280;39658;51.090;-1.786;2023-02-18T03:49:31;101680.59;;;10.20;100.00
53262;BME280;39658;51.090;-1.786;2023-02-18T03:51:58;101665.09;;;10.25;100.00
53262;BME280;39658;51.090;-1.786;2023-02-18T03:54:26;101665.94;;;10.25;100.00
53262;BME280;39658;51.090;-1.786;2023-02-18T03:56:53;101656.63;;;10.20;100.00
53262;BME280;39658;51.090;-1.786;2023-02-18T03:59:20;101658.47;;;10.19;100.00
53262;BME280;39658;51.090;-1.786;2023-02-18T04:01:47;101656.53;;;10.21;100.00
53262;BME280;39658;51.090;-1.786;2023-02-18T04:04:13;101655.69;;;10.21;100.00
53262;BME280;39658;51.090;-1.786;2023-02-18T04:06:40;101659.06;;;10.23;100.00
53262;BME280;39658;51.090;-1.786;2023-02-18T04:09:07;101652.66;;;10.25;100.00
53262;BME280;39658;51.090;-1.786;2023-02-18T04:11:36;101651.09;;;10.23;100.00
53262;BME280;39658;51.090;-1.786;2023-02-18T04:14:03;101648.66;;;10.20;100.00
53262;BME280;39658;51.090;-1.786;2023-02-18T04:16:30;101651.81;;;10.25;100.00
53262;BME280;39658;51.090;-1.786;2023-02-18T04:18:57;101656.34;;;10.34;100.00
53262;BME280;39658;51.090;-1.786;2023-02-18T04:21:24;101659.25;;;10.31;100.00
53262;BME280;39658;51.090;-1.786;2023-02-18T04:23:51;101661.94;;;10.31;100.00
53262;BME280;39658;51.090;-1.786;2023-02-18T04:26:18;101664.78;;;10.39;100.00
53262;BME280;39658;51.090;-1.786;2023-02-18T04:28:46;101657.63;;;10.40;100.00
53262;BME280;39658;51.090;-1.786;2023-02-18T04:31:13;101655.59;;;10.43;100.00
53262;BME280;39658;51.090;-1.786;2023-02-18T04:33:39;101664.53;;;10.42;100.00
53262;BME280;39658;51.090;-1.786;2023-02-18T04:36:07;101657.75;;;10.38;100.00
53262;BME280;39658;51.090;-1.786;2023-02-18T04:38:33;101659.94;;;10.44;100.00
53262;BME280;39658;51.090;-1.786;2023-02-18T04:41:00;101657.00;;;10.47;100.00
53262;BME280;39658;51.090;-1.786;2023-02-18T04:43:27;101660.44;;;10.38;100.00
53262;BME280;39658;51.090;-1.786;2023-02-18T04:45:55;101660.91;;;10.43;100.00
53262;BME280;39658;51.090;-1.786;2023-02-18T04:48:22;101665.38;;;10.43;100.00
53262;BME280;39658;51.090;-1.786;2023-02-18T04:50:48;101662.00;;;10.41;100.00
53262;BME280;39658;51.090;-1.786;2023-02-18T04:53:15;101663.56;;;10.43;100.00
53262;BME280;39658;51.090;-1.786;2023-02-18T04:55:42;101658.97;;;10.45;100.00
53262;BME280;39658;51.090;-1.786;2023-02-18T04:58:09;101659.09;;;10.44;100.00
53262;BME280;39658;51.090;-1.786;2023-02-18T05:00:35;101667.69;;;10.36;100.00
53262;BME280;39658;51.090;-1.786;2023-02-18T05:03:03;101665.28;;;10.33;100.00
53262;BME280;39658;51.090;-1.786;2023-02-18T05:05:30;101659.25;;;10.31;100.00
53262;BME280;39658;51.090;-1.786;2023-02-18T05:07:57;101658.28;;;10.32;100.00
53262;BME280;39658;51.090;-1.786;2023-02-18T05:10:24;101665.69;;;10.28;100.00
53262;BME280;39658;51.090;-1.786;2023-02-18T05:12:50;101660.50;;;10.27;100.00
53262;BME280;39658;51.090;-1.786;2023-02-18T05:15:17;101665.09;;;10.25;100.00
53262;BME280;39658;51.090;-1.786;2023-02-18T05:17:44;101669.72;;;10.23;100.00
53262;BME280;39658;51.090;-1.786;2023-02-18T05:20:12;101670.06;;;10.18;100.00
53262;BME280;39658;51.090;-1.786;2023-02-18T05:22:39;101673.22;;;10.23;100.00
53262;BME280;39658;51.090;-1.786;2023-02-18T05:25:06;101664.25;;;10.24;100.00
53262;BME280;39658;51.090;-1.786;2023-02-18T05:27:33;101683.00;;;10.23;100.00
53262;BME280;39658;51.090;-1.786;2023-02-18T05:30:00;101667.91;;;10.23;100.00
53262;BME280;39658;51.090;-1.786;2023-02-18T05:32:26;101672.59;;;10.20;100.00
53262;BME280;39658;51.090;-1.786;2023-02-18T05:34:53;101678.53;;;10.23;100.00
53262;BME280;39658;51.090;-1.786;2023-02-18T05:37:21;101671.59;;;10.32;100.00
53262;BME280;39658;51.090;-1.786;2023-02-18T05:39:48;101672.25;;;10.24;100.00
53262;BME280;39658;51.090;-1.786;2023-02-18T05:42:15;101670.44;;;10.25;100.00
53262;BME280;39658;51.090;-1.786;2023-02-18T05:44:41;101666.28;;;10.32;100.00
53262;BME280;39658;51.090;-1.786;2023-02-18T05:47:10;101663.63;;;10.32;100.00
53262;BME280;39658;51.090;-1.786;2023-02-18T05:49:37;101668.22;;;10.30;100.00
53262;BME280;39658;51.090;-1.786;2023-02-18T05:52:05;101676.19;;;10.30;100.00
53262;BME280;39658;51.090;-1.786;2023-02-18T05:54:34;101669.19;;;10.29;100.00
53262;BME280;39658;51.090;-1.786;2023-02-18T05:57:01;101670.22;;;10.38;100.00
53262;BME280;39658;51.090;-1.786;2023-02-18T05:59:28;101671.19;;;10.36;100.00
53262;BME280;39658;51.090;-1.786;2023-02-18T06:01:55;101670.50;;;10.34;100.00
53262;BME280;39658;51.090;-1.786;2023-02-18T06:04:22;101668.66;;;10.35;100.00
53262;BME280;39658;51.090;-1.786;2023-02-18T06:06:49;101660.09;;;10.31;100.00
53262;BME280;39658;51.090;-1.786;2023-02-18T06:09:16;101655.06;;;10.28;100.00
53262;BME280;39658;51.090;-1.786;2023-02-18T06:11:44;101649.16;;;10.25;100.00
53262;BME280;39658;51.090;-1.786;2023-02-18T06:14:11;101648.44;;;10.23;100.00
53262;BME280;39658;51.090;-1.786;2023-02-18T06:16:38;101655.06;;;10.28;100.00
53262;BME280;39658;51.090;-1.786;2023-02-18T06:19:05;101662.56;;;10.23;100.00
53262;BME280;39658;51.090;-1.786;2023-02-18T06:21:31;101661.94;;;10.31;100.00
53262;BME280;39658;51.090;-1.786;2023-02-18T06:23:58;101656.03;;;10.27;100.00
53262;BME280;39658;51.090;-1.786;2023-02-18T06:26:25;101657.84;;;10.27;100.00
53262;BME280;39658;51.090;-1.786;2023-02-18T06:28:53;101659.91;;;10.23;100.00
53262;BME280;39658;51.090;-1.786;2023-02-18T06:31:20;101645.06;;;10.21;100.00
53262;BME280;39658;51.090;-1.786;2023-02-18T06:33:47;101643.81;;;10.25;100.00
53262;BME280;39658;51.090;-1.786;2023-02-18T06:36:14;101639.00;;;10.19;100.00
53262;BME280;39658;51.090;-1.786;2023-02-18T06:38:42;101644.22;;;10.20;100.00
53262;BME280;39658;51.090;-1.786;2023-02-18T06:41:10;101647.09;;;10.17;100.00
53262;BME280;39658;51.090;-1.786;2023-02-18T06:43:37;101647.94;;;10.18;100.00
53262;BME280;39658;51.090;-1.786;2023-02-18T06:46:06;101637.94;;;10.21;100.00
53262;BME280;39658;51.090;-1.786;2023-02-18T06:48:33;101643.34;;;10.20;100.00
53262;BME280;39658;51.090;-1.786;2023-02-18T06:51:00;101642.50;;;10.19;100.00
53262;BME280;39658;51.090;-1.786;2023-02-18T06:53:26;101644.09;;;10.22;100.00
53262;BME280;39658;51.090;-1.786;2023-02-18T06:55:53;101634.06;;;10.14;100.00
53262;BME280;39658;51.090;-1.786;2023-02-18T06:58:20;101641.66;;;10.19;100.00
53262;BME280;39658;51.090;-1.786;2023-02-18T07:00:48;101641.91;;;10.16;100.00
53262;BME280;39658;51.090;-1.786;2023-02-18T07:03:16;101639.63;;;10.22;100.00
53262;BME280;39658;51.090;-1.786;2023-02-18T07:05:43;101638.50;;;10.25;100.00
53262;BME280;39658;51.090;-1.786;2023-02-18T07:08:10;101649.88;;;10.27;100.00
53262;BME280;39658;51.090;-1.786;2023-02-18T07:10:37;101648.88;;;10.28;100.00
53262;BME280;39658;51.090;-1.786;2023-02-18T07:13:04;101648.44;;;10.23;100.00
53262;BME280;39658;51.090;-1.786;2023-02-18T07:15:31;101640.19;;;10.26;100.00
53262;BME280;39658;51.090;-1.786;2023-02-18T07:17:58;101644.28;;;10.30;100.00
53262;BME280;39658;51.090;-1.786;2023-02-18T07:20:26;101644.00;;;10.33;100.00
53262;BME280;39658;51.090;-1.786;2023-02-18T07:22:53;101641.22;;;10.34;100.00
53262;BME280;39658;51.090;-1.786;2023-02-18T07:25:20;101640.47;;;10.44;100.00
53262;BME280;39658;51.090;-1.786;2023-02-18T07:27:47;101632.22;;;10.47;100.00
53262;BME280;39658;51.090;-1.786;2023-02-18T07:30:14;101633.19;;;10.46;100.00
53262;BME280;39658;51.090;-1.786;2023-02-18T07:32:41;101637.41;;;10.48;100.00
53262;BME280;39658;51.090;-1.786;2023-02-18T07:35:10;101635.31;;;10.52;100.00
53262;BME280;39658;51.090;-1.786;2023-02-18T07:37:39;101644.47;;;10.59;100.00
53262;BME280;39658;51.090;-1.786;2023-02-18T07:40:08;101637.31;;;10.59;100.00
53262;BME280;39658;51.090;-1.786;2023-02-18T07:42:35;101638.59;;;10.65;100.00
53262;BME280;39658;51.090;-1.786;2023-02-18T07:45:01;101644.94;;;10.74;100.00
53262;BME280;39658;51.090;-1.786;2023-02-18T07:47:28;101650.28;;;10.74;100.00
53262;BME280;39658;51.090;-1.786;2023-02-18T07:49:55;101660.03;;;10.63;100.00
53262;BME280;39658;51.090;-1.786;2023-02-18T07:52:22;101665.53;;;10.72;100.00
53262;BME280;39658;51.090;-1.786;2023-02-18T07:54:50;101654.19;;;10.70;100.00
53262;BME280;39658;51.090;-1.786;2023-02-18T07:57:17;101659.47;;;10.60;100.00
53262;BME280;39658;51.090;-1.786;2023-02-18T07:59:43;101665.22;;;10.65;100.00
53262;BME280;39658;51.090;-1.786;2023-02-18T08:02:20;101665.09;;;10.66;100.00
53262;BME280;39658;51.090;-1.786;2023-02-18T08:04:47;101669.84;;;10.63;100.00
53262;BME280;39658;51.090;-1.786;2023-02-18T08:07:15;101667.50;;;10.70;100.00
53262;BME280;39658;51.090;-1.786;2023-02-18T08:09:42;101662.75;;;10.73;100.00
53262;BME280;39658;51.090;-1.786;2023-02-18T08:12:10;101675.34;;;10.71;100.00
53262;BME280;39658;51.090;-1.786;2023-02-18T08:14:37;101673.25;;;10.75;100.00
53262;BME280;39658;51.090;-1.786;2023-02-18T08:17:04;101668.47;;;10.68;100.00
53262;BME280;39658;51.090;-1.786;2023-02-18T08:19:31;101674.38;;;10.72;100.00
53262;BME280;39658;51.090;-1.786;2023-02-18T08:22:00;101673.53;;;10.72;100.00
53262;BME280;39658;51.090;-1.786;2023-02-18T08:24:27;101670.16;;;10.70;100.00
53262;BME280;39658;51.090;-1.786;2023-02-18T08:26:54;101671.88;;;10.80;100.00
53262;BME280;39658;51.090;-1.786;2023-02-18T08:29:22;101681.81;;;10.78;100.00
53262;BME280;39658;51.090;-1.786;2023-02-18T08:31:49;101675.16;;;10.84;100.00
53262;BME280;39658;51.090;-1.786;2023-02-18T08:34:18;101681.94;;;10.77;100.00
53262;BME280;39658;51.090;-1.786;2023-02-18T08:36:45;101667.28;;;10.82;100.00
53262;BME280;39658;51.090;-1.786;2023-02-18T08:39:12;101675.84;;;10.86;100.00
53262;BME280;39658;51.090;-1.786;2023-02-18T08:41:38;101676.75;;;10.96;100.00
53262;BME280;39658;51.090;-1.786;2023-02-18T08:44:05;101679.72;;;11.03;100.00
53262;BME280;39658;51.090;-1.786;2023-02-18T08:46:33;101681.00;;;11.08;100.00
53262;BME280;39658;51.090;-1.786;2023-02-18T08:49:00;101673.84;;;11.09;100.00
53262;BME280;39658;51.090;-1.786;2023-02-18T08:51:27;101668.06;;;11.04;100.00
53262;BME280;39658;51.090;-1.786;2023-02-18T08:53:54;101660.13;;;11.13;100.00
53262;BME280;39658;51.090;-1.786;2023-02-18T08:56:21;101666.16;;;11.15;100.00
53262;BME280;39658;51.090;-1.786;2023-02-18T08:58:47;101670.50;;;11.16;100.00
53262;BME280;39658;51.090;-1.786;2023-02-18T09:01:14;101672.66;;;11.22;100.00
53262;BME280;39658;51.090;-1.786;2023-02-18T09:03:42;101677.56;;;11.27;100.00
53262;BME280;39658;51.090;-1.786;2023-02-18T09:06:10;101678.00;;;11.32;100.00
53262;BME280;39658;51.090;-1.786;2023-02-18T09:08:37;101677.88;;;11.34;100.00
53262;BME280;39658;51.090;-1.786;2023-02-18T09:11:04;101677.75;;;11.45;100.00
53262;BME280;39658;51.090;-1.786;2023-02-18T09:13:32;101679.41;;;11.36;100.00
53262;BME280;39658;51.090;-1.786;2023-02-18T09:16:01;101670.31;;;11.48;100.00
53262;BME280;39658;51.090;-1.786;2023-02-18T09:18:29;101677.34;;;11.59;100.00
53262;BME280;39658;51.090;-1.786;2023-02-18T09:20:58;101681.59;;;11.61;100.00
53262;BME280;39658;51.090;-1.786;2023-02-18T09:23:26;101675.13;;;11.64;100.00
53262;BME280;39658;51.090;-1.786;2023-02-18T09:25:54;101670.78;;;11.63;100.00
53262;BME280;39658;51.090;-1.786;2023-02-18T09:28:21;101673.72;;;11.70;100.00
53262;BME280;39658;51.090;-1.786;2023-02-18T09:30:48;101670.13;;;11.80;100.00
53262;BME280;39658;51.090;-1.786;2023-02-18T09:33:16;101668.41;;;11.70;100.00
53262;BME280;39658;51.090;-1.786;2023-02-18T09:35:44;101669.09;;;11.72;100.00
53262;BME280;39658;51.090;-1.786;2023-02-18T09:38:14;101670.25;;;11.79;100.00
53262;BME280;39658;51.090;-1.786;2023-02-18T09:40:44;101667.47;;;11.80;100.00
53262;BME280;39658;51.090;-1.786;2023-02-18T09:43:18;101668.28;;;11.90;100.00
53262;BME280;39658;51.090;-1.786;2023-02-18T09:45:48;101667.34;;;12.01;100.00
53262;BME280;39658;51.090;-1.786;2023-02-18T09:48:15;101665.78;;;11.99;100.00
53262;BME280;39658;51.090;-1.786;2023-02-18T09:50:45;101671.53;;;11.94;100.00
53262;BME280;39658;51.090;-1.786;2023-02-18T09:53:17;101666.34;;;11.92;100.00
53262;BME280;39658;51.090;-1.786;2023-02-18T09:55:44;101671.81;;;12.01;100.00
53262;BME280;39658;51.090;-1.786;2023-02-18T09:58:13;101668.03;;;12.03;100.00
53262;BME280;39658;51.090;-1.786;2023-02-18T10:00:43;101660.88;;;12.13;100.00
53262;BME280;39658;51.090;-1.786;2023-02-18T10:03:14;101665.34;;;12.22;100.00
53262;BME280;39658;51.090;-1.786;2023-02-18T10:05:48;101663.94;;;12.18;100.00
53262;BME280;39658;51.090;-1.786;2023-02-18T10:08:20;101666.75;;;12.17;100.00
53262;BME280;39658;51.090;-1.786;2023-02-18T10:10:48;101675.72;;;11.97;100.00
53262;BME280;39658;51.090;-1.786;2023-02-18T10:13:17;101681.09;;;12.06;100.00
53262;BME280;39658;51.090;-1.786;2023-02-18T10:15:45;101678.41;;;11.97;100.00
53262;BME280;39658;51.090;-1.786;2023-02-18T10:18:21;101685.84;;;11.93;100.00
53262;BME280;39658;51.090;-1.786;2023-02-18T10:20:51;101690.75;;;11.88;100.00
53262;BME280;39658;51.090;-1.786;2023-02-18T10:23:20;101688.50;;;11.93;100.00
53262;BME280;39658;51.090;-1.786;2023-02-18T10:25:47;101687.25;;;11.87;100.00
53262;BME280;39658;51.090;-1.786;2023-02-18T10:28:17;101689.34;;;11.93;100.00
53262;BME280;39658;51.090;-1.786;2023-02-18T10:30:47;101676.47;;;12.08;100.00
53262;BME280;39658;51.090;-1.786;2023-02-18T10:33:26;101681.81;;;12.08;100.00
53262;BME280;39658;51.090;-1.786;2023-02-18T10:36:03;101685.31;;;12.09;100.00
53262;BME280;39658;51.090;-1.786;2023-02-18T10:38:40;101684.72;;;11.96;100.00
53262;BME280;39658;51.090;-1.786;2023-02-18T10:41:17;101685.41;;;11.98;100.00
53262;BME280;39658;51.090;-1.786;2023-02-18T10:43:53;101683.34;;;12.11;100.00
53262;BME280;39658;51.090;-1.786;2023-02-18T10:46:24;101676.16;;;12.21;100.00
53262;BME280;39658;51.090;-1.786;2023-02-18T10:49:02;101690.34;;;12.41;100.00
53262;BME280;39658;51.090;-1.786;2023-02-18T10:51:33;101682.47;;;12.39;100.00
53262;BME280;39658;51.090;-1.786;2023-02-18T10:54:02;101685.09;;;12.59;100.00
53262;BME280;39658;51.090;-1.786;2023-02-18T10:56:34;101677.47;;;12.73;100.00
53262;BME280;39658;51.090;-1.786;2023-02-18T10:59:09;101674.81;;;12.73;100.00
53262;BME280;39658;51.090;-1.786;2023-02-18T11:01:37;101668.38;;;12.57;100.00
53262;BME280;39658;51.090;-1.786;2023-02-18T11:04:10;101668.38;;;12.57;100.00
53262;BME280;39658;51.090;-1.786;2023-02-18T11:06:38;101662.63;;;12.61;100.00
53262;BME280;39658;51.090;-1.786;2023-02-18T11:09:24;101666.25;;;12.70;100.00
53262;BME280;39658;51.090;-1.786;2023-02-18T11:11:58;101660.94;;;12.60;100.00
53262;BME280;39658;51.090;-1.786;2023-02-18T11:14:36;101666.94;;;12.72;100.00
53262;BME280;39658;51.090;-1.786;2023-02-18T11:17:13;101675.19;;;12.78;100.00
53262;BME280;39658;51.090;-1.786;2023-02-18T11:19:41;101665.34;;;12.89;100.00
53262;BME280;39658;51.090;-1.786;2023-02-18T11:22:14;101673.47;;;12.97;100.00
53262;BME280;39658;51.090;-1.786;2023-02-18T11:24:43;101662.44;;;13.09;100.00
53262;BME280;39658;51.090;-1.786;2023-02-18T11:27:28;101662.13;;;13.12;100.00
53262;BME280;39658;51.090;-1.786;2023-02-18T11:29:59;101659.28;;;12.96;100.00
53262;BME280;39658;51.090;-1.786;2023-02-18T11:32:29;101662.81;;;12.87;100.00
53262;BME280;39658;51.090;-1.786;2023-02-18T11:34:57;101676.03;;;12.89;100.00
53262;BME280;39658;51.090;-1.786;2023-02-18T11:37:24;101671.53;;;12.79;100.00
53262;BME280;39658;51.090;-1.786;2023-02-18T11:39:53;101672.84;;;12.66;100.00
53262;BME280;39658;51.090;-1.786;2023-02-18T11:42:23;101676.25;;;12.58;100.00
53262;BME280;39658;51.090;-1.786;2023-02-18T11:44:52;101675.72;;;12.35;100.00
53262;BME280;39658;51.090;-1.786;2023-02-18T11:47:23;101691.19;;;12.32;100.00
53262;BME280;39658;51.090;-1.786;2023-02-18T11:50:16;101682.59;;;12.38;100.00
53262;BME280;39658;51.090;-1.786;2023-02-18T11:52:45;101694.00;;;12.30;100.00
53262;BME280;39658;51.090;-1.786;2023-02-18T11:55:17;101692.31;;;12.29;100.00
53262;BME280;39658;51.090;-1.786;2023-02-18T11:57:48;101687.25;;;12.36;100.00
53262;BME280;39658;51.090;-1.786;2023-02-18T12:00:21;101685.69;;;12.33;100.00
53262;BME280;39658;51.090;-1.786;2023-02-18T12:02:49;101690.06;;;12.34;100.00
53262;BME280;39658;51.090;-1.786;2023-02-18T12:05:20;101685.28;;;12.28;100.00
53262;BME280;39658;51.090;-1.786;2023-02-18T12:07:49;101687.56;;;12.13;100.00
53262;BME280;39658;51.090;-1.786;2023-02-18T12:10:26;101687.41;;;12.05;100.00
53262;BME280;39658;51.090;-1.786;2023-02-18T12:12:59;101676.88;;;11.84;100.00
53262;BME280;39658;51.090;-1.786;2023-02-18T12:15:35;101686.25;;;11.79;100.00
53262;BME280;39658;51.090;-1.786;2023-02-18T12:18:18;101687.78;;;11.72;100.00
53262;BME280;39658;51.090;-1.786;2023-02-18T12:24:02;101675.44;;;12.00;100.00
53262;BME280;39658;51.090;-1.786;2023-02-18T12:26:39;101673.50;;;12.11;100.00
53262;BME280;39658;51.090;-1.786;2023-02-18T12:29:27;101671.41;;;12.15;100.00
53262;BME280;39658;51.090;-1.786;2023-02-18T12:32:16;101669.16;;;12.10;100.00
53262;BME280;39658;51.090;-1.786;2023-02-18T12:34:59;101677.16;;;12.10;100.00
53262;BME280;39658;51.090;-1.786;2023-02-18T12:40:32;101665.63;;;12.19;100.00
53262;BME280;39658;51.090;-1.786;2023-02-18T12:43:06;101670.41;;;12.26;100.00
53262;BME280;39658;51.090;-1.786;2023-02-18T12:46:00;101670.13;;;12.29;100.00
53262;BME280;39658;51.090;-1.786;2023-02-18T12:48:56;101660.84;;;12.23;100.00
53262;BME280;39658;51.090;-1.786;2023-02-18T12:51:36;101663.25;;;12.16;100.00
53262;BME280;39658;51.090;-1.786;2023-02-18T12:54:22;101668.59;;;12.16;100.00
53262;BME280;39658;51.090;-1.786;2023-02-18T12:57:12;101663.94;;;12.18;100.00
53262;BME280;39658;51.090;-1.786;2023-02-18T13:00:09;101657.78;;;12.18;100.00
53262;BME280;39658;51.090;-1.786;2023-02-18T13:03:02;101653.84;;;12.22;100.00